Time;durP1;ratioP1;P1;durP2;ratioP2;P2;SDS_P1;SDS_P2;PMS_P1;PMS_P2;Temp;Humidity;BMP_temperature;BMP_pressure;BME280_temperature;BME280_humidity;BME280_pressure;Samples;Min_cycle;Max_cycle;Signal;HPM_P1;HPM_P2
2023/09/18 00:02:25;;;;;;;11.73;10.52;;;;;;;19.02;100.00;100561.63;5131264;27;20047;-36
2023/09/18 00:04:50;;;;;;;11.05;10.05;;;;;;;19.04;100.00;100561.38;5131141;27;20099;-36
2023/09/18 00:07:16;;;;;;;11.27;10.07;;;;;;;19.01;100.00;100546.31;5131136;27;20481;-36
2023/09/18 00:09:41;;;;;;;11.60;10.40;;;;;;;18.97;100.00;100534.31;5121646;28;20367;-36
2023/09/18 00:12:06;;;;;;;11.13;10.15;;;;;;;19.03;100.00;100546.84;5117417;27;20031;-36
2023/09/18 00:14:32;;;;;;;11.05;10.02;;;;;;;19.00;100.00;100549.38;5117762;28;20015;-36
2023/09/18 00:16:58;;;;;;;12.93;10.25;;;;;;;18.98;100.00;100546.94;5117178;28;20027;-36
2023/09/18 00:19:24;;;;;;;12.95;10.38;;;;;;;18.96;100.00;100545.56;5117125;28;20466;-36
2023/09/18 00:21:50;;;;;;;11.98;10.77;;;;;;;18.96;100.00;100529.13;5116809;28;20027;-36
2023/09/18 00:24:17;;;;;;;11.02;9.93;;;;;;;18.93;100.00;100536.00;5116741;28;20019;-36
2023/09/18 00:26:42;;;;;;;11.60;10.45;;;;;;;18.95;100.00;100524.78;5116840;27;20019;-36
2023/09/18 00:29:07;;;;;;;12.18;11.07;;;;;;;18.97;100.00;100517.06;5116743;27;20484;-37
2023/09/18 00:31:33;;;;;;;11.95;10.57;;;;;;;18.91;100.00;100508.09;5117299;28;20024;-37
2023/09/18 00:33:58;;;;;;;11.20;10.10;;;;;;;18.94;100.00;100496.56;5116916;27;20102;-37
2023/09/18 00:36:24;;;;;;;11.10;10.10;;;;;;;18.96;100.00;100496.25;5117126;28;20055;-37
2023/09/18 00:38:49;;;;;;;11.93;10.73;;;;;;;18.86;100.00;100493.66;5116717;28;20099;-37
2023/09/18 00:41:14;;;;;;;11.85;10.75;;;;;;;18.85;100.00;100481.88;5116082;28;20030;-37
2023/09/18 00:43:39;;;;;;;;;;;;;;;18.99;100.00;100481.97;5116590;28;20023;-37
2023/09/18 00:46:05;;;;;;;12.20;11.00;;;;;;;18.93;100.00;100483.13;5116048;28;19951;-37
2023/09/18 00:48:31;;;;;;;12.38;11.18;;;;;;;18.92;100.00;100479.59;5116353;28;20261;-37
2023/09/18 00:50:56;;;;;;;12.40;11.10;;;;;;;18.94;100.00;100473.84;5116247;27;20452;-37
2023/09/18 00:53:23;;;;;;;;;;;;;;;18.97;100.00;100460.34;5116698;28;20024;-36
2023/09/18 00:55:55;;;;;;;11.82;10.63;;;;;;;18.89;100.00;100460.22;5116144;28;19904;-37
2023/09/18 00:58:22;;;;;;;12.23;10.65;;;;;;;18.90;100.00;100464.56;5116070;28;20353;-37
2023/09/18 01:00:50;;;;;;;11.65;10.43;;;;;;;18.92;100.00;100463.16;5116087;28;20028;-37
2023/09/18 01:03:18;;;;;;;12.23;11.00;;;;;;;18.90;100.00;100459.91;5116579;27;20035;-37
2023/09/18 01:05:43;;;;;;;11.77;10.73;;;;;;;18.92;100.00;100451.38;5115914;28;20020;-37
2023/09/18 01:08:09;;;;;;;;;;;;;;;18.99;100.00;100451.84;5116974;27;20031;-37
2023/09/18 01:10:48;;;;;;;11.37;10.27;;;;;;;18.91;100.00;100433.31;5115566;28;19908;-37
2023/09/18 01:13:17;;;;;;;13.27;10.88;;;;;;;18.91;100.00;100419.63;5116153;28;20287;-37
2023/09/18 01:15:54;;;;;;;12.07;11.00;;;;;;;18.91;100.00;100420.44;5115485;28;20460;-37
2023/09/18 01:18:19;;;;;;;13.70;11.07;;;;;;;18.91;100.00;100414.94;5116206;28;20019;-37
2023/09/18 01:20:45;;;;;;;;;;;;;;;18.97;100.00;100423.91;5115044;28;20462;-37
2023/09/18 01:23:11;;;;;;;11.70;10.63;;;;;;;18.92;100.00;100418.50;5116474;28;20304;-37
2023/09/18 01:25:37;;;;;;;11.98;10.80;;;;;;;18.89;100.00;100397.19;5115798;28;20095;-37
2023/09/18 01:28:03;;;;;;;13.38;12.07;;;;;;;18.90;100.00;100401.56;5115901;28;20023;-37
2023/09/18 01:30:28;;;;;;;;;;;;;;;18.95;100.00;100398.75;5115674;28;20460;-37
2023/09/18 01:32:55;;;;;;;13.27;11.98;;;;;;;18.93;100.00;100398.19;5116294;28;19914;-36
2023/09/18 01:35:22;;;;;;;12.05;10.85;;;;;;;18.90;100.00;100396.88;5115666;28;20034;-37
2023/09/18 01:37:49;;;;;;;12.05;10.82;;;;;;;18.86;100.00;100400.50;5116093;28;20050;-37
2023/09/18 01:40:15;;;;;;;11.25;10.02;;;;;;;18.92;100.00;100407.53;5115853;28;20023;-36
2023/09/18 01:42:41;;;;;;;;;;;;;;;18.98;100.00;100414.56;5115662;28;20478;-37
2023/09/18 01:45:07;;;;;;;11.38;10.27;;;;;;;18.91;100.00;100414.13;5114852;28;19952;-37
2023/09/18 01:47:33;;;;;;;;;;;;;;;18.97;100.00;100415.69;5115611;28;20031;-37
2023/09/18 01:50:04;;;;;;;11.60;10.20;;;;;;;18.86;100.00;100411.47;5115120;28;19910;-37
2023/09/18 01:52:30;;;;;;;11.55;9.70;;;;;;;18.90;100.00;100428.94;5115916;28;20027;-37
2023/09/18 01:54:56;;;;;;;11.63;10.10;;;;;;;18.84;100.00;100406.31;5115802;28;20019;-37
2023/09/18 01:57:21;;;;;;;;;;;;;;;18.97;100.00;100421.16;5115482;28;20011;-37
2023/09/18 01:59:47;;;;;;;10.38;9.10;;;;;;;18.91;100.00;100419.63;5115126;28;20398;-37
2023/09/18 02:02:12;;;;;;;;;;;;;;;18.95;100.00;100415.19;5115054;28;20024;-37
2023/09/18 02:04:38;;;;;;;10.70;8.55;;;;;;;18.88;100.00;100420.19;5115083;28;19908;-36
2023/09/18 02:07:03;;;;;;;9.27;8.38;;;;;;;18.86;100.00;100411.47;5115091;28;20079;-37
2023/09/18 02:09:28;;;;;;;;;;;;;;;18.92;100.00;100400.13;5114885;28;20366;-37
2023/09/18 02:11:54;;;;;;;9.80;7.50;;;;;;;18.90;100.00;100407.03;5115011;28;20383;-37
2023/09/18 02:14:19;;;;;;;8.45;7.18;;;;;;;18.89;100.00;100406.22;5114335;27;20026;-37
2023/09/18 02:16:45;;;;;;;;;;;;;;;18.96;100.00;100406.66;5115576;28;20041;-37
2023/09/18 02:19:13;;;;;;;9.70;6.28;;;;;;;18.95;100.00;100394.06;5114570;28;19912;-37
2023/09/18 02:21:39;;;;;;;8.57;7.25;;;;;;;18.95;100.00;100390.53;5114230;28;20043;-37
2023/09/18 02:24:04;;;;;;;;;;;;;;;19.01;100.00;100392.06;5115217;28;20034;-37
2023/09/18 02:26:30;;;;;;;8.20;6.15;;;;;;;18.89;100.00;100378.03;5114450;28;19908;-37
2023/09/18 02:28:59;;;;;;;6.47;5.78;;;;;;;18.94;100.00;100377.94;5114749;28;20051;-37
2023/09/18 02:31:24;;;;;;;7.38;6.20;;;;;;;18.98;100.00;100374.31;5113982;28;20019;-37
2023/09/18 02:33:49;;;;;;;;;;;;;;;19.03;100.00;100365.16;5115251;28;20084;-37
2023/09/18 02:36:15;;;;;;;7.23;5.47;;;;;;;18.94;100.00;100340.41;5114370;28;19907;-37
2023/09/18 02:38:40;;;;;;;;;;;;;;;19.04;100.00;100353.13;5114932;28;20275;-37
2023/09/18 02:41:06;;;;;;;11.82;5.57;;;;;;;19.00;100.00;100341.13;5114551;28;19912;-37
2023/09/18 02:43:31;;;;;;;7.68;5.93;;;;;;;18.95;100.00;100327.50;5114779;28;20030;-37
2023/09/18 02:45:57;;;;;;;8.10;5.60;;;;;;;18.96;100.00;100329.13;5114395;28;20104;-37
2023/09/18 02:48:22;;;;;;;8.20;5.60;;;;;;;18.92;100.00;100311.66;5113903;28;20153;-37
2023/09/18 02:50:47;;;;;;;6.70;5.78;;;;;;;18.99;100.00;100315.66;5114198;28;20072;-37
2023/09/18 02:53:31;;;;;;;8.13;6.07;;;;;;;19.01;100.00;100316.16;5114443;28;20100;-37
2023/09/18 02:55:58;;;;;;;9.07;5.07;;;;;;;18.96;100.00;100299.78;5114666;28;20024;-37
2023/09/18 02:58:25;;;;;;;7.78;5.75;;;;;;;18.97;100.00;100300.59;5114427;28;20055;-37
2023/09/18 03:00:52;;;;;;;9.50;5.97;;;;;;;19.05;100.00;100313.63;5114025;28;20032;-37
2023/09/18 03:03:18;;;;;;;7.60;4.97;;;;;;;19.01;100.00;100304.38;5114861;28;20340;-36
2023/09/18 03:05:44;;;;;;;6.60;4.78;;;;;;;19.01;100.00;100299.72;5114227;28;20026;-36
2023/09/18 03:08:11;;;;;;;5.80;5.15;;;;;;;19.04;100.00;100303.78;5114839;28;20035;-36
2023/09/18 03:10:39;;;;;;;7.45;5.32;;;;;;;19.06;100.00;100304.28;5114543;28;20024;-37
2023/09/18 03:13:05;;;;;;;7.38;5.25;;;;;;;19.01;100.00;100298.91;5114518;28;20020;-36
2023/09/18 03:15:31;;;;;;;12.10;5.57;;;;;;;18.96;100.00;100283.34;5113943;28;20019;-37
2023/09/18 03:17:58;;;;;;;5.97;5.38;;;;;;;18.90;100.00;100272.81;5113573;28;20038;-36
2023/09/18 03:20:27;;;;;;;6.43;4.47;;;;;;;18.98;100.00;100285.78;5114108;28;20103;-36
2023/09/18 03:22:55;;;;;;;6.47;4.85;;;;;;;18.94;100.00;100276.56;5114719;28;20329;-37
2023/09/18 03:25:21;;;;;;;7.57;5.60;;;;;;;18.89;100.00;100273.91;5113559;28;20047;-37
2023/09/18 03:27:47;;;;;;;7.07;4.95;;;;;;;18.91;100.00;100291.66;5114644;28;20034;-37
2023/09/18 03:30:15;;;;;;;8.52;5.93;;;;;;;18.89;100.00;100274.72;5113781;28;20024;-37
2023/09/18 03:32:41;;;;;;;9.63;5.65;;;;;;;18.85;100.00;100261.94;5114057;28;20023;-37
2023/09/18 03:35:08;;;;;;;7.28;4.93;;;;;;;18.91;100.00;100272.50;5113453;28;20028;-40
2023/09/18 03:37:34;;;;;;;6.50;4.93;;;;;;;18.90;100.00;100287.31;5114210;28;20031;-37
2023/09/18 03:39:59;;;;;;;8.23;6.13;;;;;;;18.90;100.00;100283.75;5113582;28;20032;-37
2023/09/18 03:42:26;;;;;;;6.55;5.25;;;;;;;18.83;100.00;100277.84;5114291;28;20020;-36
2023/09/18 03:44:51;;;;;;;7.93;5.78;;;;;;;18.89;100.00;100277.47;5116015;28;20123;-37
2023/09/18 03:47:16;;;;;;;6.80;4.75;;;;;;;18.85;100.00;100281.09;5118162;28;20055;-36
2023/09/18 03:49:41;;;;;;;6.60;5.00;;;;;;;18.88;100.00;100294.19;5117146;28;20119;-36
2023/09/18 03:52:07;;;;;;;10.02;5.13;;;;;;;18.90;100.00;100303.75;5117181;28;20024;-37
2023/09/18 03:54:32;;;;;;;7.22;5.45;;;;;;;18.92;100.00;100311.66;5117475;28;20030;-37
2023/09/18 03:56:57;;;;;;;9.52;5.35;;;;;;;18.94;100.00;100306.72;5116617;28;20024;-37
2023/09/18 03:59:23;;;;;;;8.82;5.03;;;;;;;18.98;100.00;100299.50;5117103;28;20464;-37
2023/09/18 04:01:49;;;;;;;9.48;4.88;;;;;;;19.00;100.00;100302.75;5117343;28;20024;-37
2023/09/18 04:04:15;;;;;;;7.85;5.32;;;;;;;19.02;100.00;100281.34;5117164;28;20019;-37
2023/09/18 04:06:42;;;;;;;7.72;4.78;;;;;;;19.04;100.00;100266.25;5117398;28;20026;-36
2023/09/18 04:09:08;;;;;;;10.15;4.85;;;;;;;19.06;100.00;100276.88;5117115;28;20122;-37
2023/09/18 04:11:33;;;;;;;12.07;5.07;;;;;;;19.02;100.00;100297.78;5117126;28;20363;-36
2023/09/18 04:14:00;;;;;;;9.50;4.78;;;;;;;18.99;100.00;100301.13;5117292;28;20498;-37
2023/09/18 04:16:27;;;;;;;9.95;5.28;;;;;;;19.00;100.00;100309.06;5117765;28;20024;-37
2023/09/18 04:18:53;;;;;;;9.93;5.18;;;;;;;19.04;100.00;100310.09;5116854;27;20027;-37
2023/09/18 04:21:19;;;;;;;9.55;5.35;;;;;;;19.07;100.00;100308.66;5116895;28;20053;-37
2023/09/18 04:23:44;;;;;;;8.88;5.60;;;;;;;19.07;100.00;100313.31;5116819;28;20038;-37
2023/09/18 04:26:10;;;;;;;9.60;5.75;;;;;;;19.09;100.00;100300.16;5117347;28;20076;-37
2023/09/18 04:28:36;;;;;;;9.90;6.00;;;;;;;19.06;100.00;100298.81;5117027;28;20475;-37
2023/09/18 04:31:01;;;;;;;7.90;5.18;;;;;;;19.09;100.00;100297.41;5116710;28;20451;-36
2023/09/18 04:33:28;;;;;;;7.55;4.90;;;;;;;19.10;100.00;100285.31;5116692;28;20031;-37
2023/09/18 04:35:54;;;;;;;10.63;4.85;;;;;;;19.10;100.00;100288.88;5116291;28;20077;-37
2023/09/18 04:38:19;;;;;;;7.97;5.03;;;;;;;19.09;100.00;100268.06;5116559;27;20028;-36
2023/09/18 04:40:45;;;;;;;8.52;4.72;;;;;;;19.13;100.00;100273.75;5116213;28;20084;-37
2023/09/18 04:43:11;;;;;;;8.77;5.45;;;;;;;19.07;100.00;100262.06;5117002;28;20026;-36
2023/09/18 04:45:36;;;;;;;10.57;5.32;;;;;;;19.11;100.00;100268.56;5116933;28;20027;-37
2023/09/18 04:48:02;;;;;;;8.10;4.53;;;;;;;19.07;100.00;100236.59;5116703;28;20098;-36
2023/09/18 04:50:28;;;;;;;6.70;4.55;;;;;;;19.12;100.00;100225.53;5116286;28;20020;-37
2023/09/18 04:52:55;;;;;;;9.00;5.10;;;;;;;19.07;100.00;100212.75;5116009;28;20379;-36
2023/09/18 04:55:21;;;;;;;8.30;4.70;;;;;;;19.07;100.00;100210.00;5116085;28;20019;-37
2023/09/18 04:57:47;;;;;;;7.45;4.70;;;;;;;19.02;100.00;100202.69;5116540;28;20106;-37
2023/09/18 05:00:13;;;;;;;12.25;4.75;;;;;;;19.08;100.00;100206.16;5117373;28;20040;-36
2023/09/18 05:02:39;;;;;;;8.00;4.75;;;;;;;19.05;100.00;100212.25;5116645;28;20032;-37
2023/09/18 05:05:08;;;;;;;10.15;5.25;;;;;;;18.98;100.00;100206.34;5115992;28;20114;-36
2023/09/18 05:07:34;;;;;;;7.03;4.85;;;;;;;18.97;100.00;100211.00;5115966;27;20491;-36
2023/09/18 05:09:59;;;;;;;9.68;5.18;;;;;;;18.93;100.00;100211.91;5115635;28;20027;-37
2023/09/18 05:12:24;;;;;;;9.27;4.93;;;;;;;18.92;100.00;100207.56;5116080;28;20102;-37
2023/09/18 05:14:51;;;;;;;6.80;5.32;;;;;;;18.91;100.00;100205.94;5115793;28;20047;-36
2023/09/18 05:17:16;;;;;;;7.15;4.95;;;;;;;18.85;100.00;100204.41;5116027;28;20088;-37
2023/09/18 05:19:42;;;;;;;9.27;5.65;;;;;;;18.86;100.00;100197.81;5115684;28;20451;-37
2023/09/18 05:22:10;;;;;;;9.35;6.05;;;;;;;18.82;100.00;100196.78;5116283;28;20027;-37
2023/09/18 05:24:35;;;;;;;8.23;5.10;;;;;;;18.85;100.00;100223.59;5115597;28;20035;-36
2023/09/18 05:27:01;;;;;;;8.02;5.75;;;;;;;18.85;100.00;100227.13;5116212;28;20016;-37
2023/09/18 05:29:26;;;;;;;6.65;4.97;;;;;;;18.83;100.00;100220.31;5115583;28;20372;-37
2023/09/18 05:31:52;;;;;;;9.07;5.70;;;;;;;18.86;100.00;100230.69;5116039;28;20360;-36
2023/09/18 05:34:17;;;;;;;7.47;5.35;;;;;;;18.84;100.00;100232.88;5115386;28;20020;-36
2023/09/18 05:36:42;;;;;;;8.68;5.43;;;;;;;18.86;100.00;100238.91;5115991;28;20027;-37
2023/09/18 05:39:12;;;;;;;12.23;5.22;;;;;;;18.85;100.00;100234.53;5114969;28;20123;-36
2023/09/18 05:41:38;;;;;;;7.68;5.10;;;;;;;18.81;100.00;100222.56;5115526;28;20549;-37
2023/09/18 05:44:04;;;;;;;5.35;4.03;;;;;;;18.80;100.00;100223.69;5115220;28;20382;-36
2023/09/18 05:46:30;;;;;;;;;;;;;;;18.85;100.00;100235.34;5116460;28;20028;-36
2023/09/18 05:48:57;;;;;;;6.50;3.15;;;;;;;18.85;100.00;100229.88;5114896;28;20033;-36
2023/09/18 05:51:22;;;;;;;5.47;3.05;;;;;;;18.86;100.00;100228.75;5114709;28;20051;-36
2023/09/18 05:53:47;;;;;;;;;;;;;;;18.91;100.00;100242.34;5116061;28;20049;-36
2023/09/18 05:56:14;;;;;;;5.70;2.80;;;;;;;18.84;100.00;100238.38;5115247;28;20316;-36
2023/09/18 05:58:39;;;;;;;3.40;2.40;;;;;;;18.87;100.00;100246.00;5115179;28;20097;-36
2023/09/18 06:01:05;;;;;;;;;;;;;;;18.93;100.00;100242.84;5115310;28;20417;-36
2023/09/18 06:03:35;;;;;;;6.75;2.95;;;;;;;18.89;100.00;100257.47;5115797;28;20361;-36
2023/09/18 06:06:03;;;;;;;4.45;2.33;;;;;;;18.87;100.00;100249.53;5114773;28;20459;-36
2023/09/18 06:08:30;;;;;;;3.03;2.10;;;;;;;18.89;100.00;100262.97;5114386;28;20471;-37
2023/09/18 06:10:56;;;;;;;6.75;2.55;;;;;;;18.90;100.00;100276.34;5115250;28;20019;-36
2023/09/18 06:13:22;;;;;;;4.68;2.00;;;;;;;18.91;100.00;100271.69;5114721;28;20022;-37
2023/09/18 06:15:47;;;;;;;;;;;;;;;18.96;100.00;100274.34;5115110;28;20106;-37
2023/09/18 06:18:13;;;;;;;3.20;2.00;;;;;;;18.84;100.00;100272.09;5115156;28;19908;-36
2023/09/18 06:20:39;;;;;;;5.47;2.35;;;;;;;18.87;100.00;100279.69;5114508;28;20455;-37
2023/09/18 06:23:04;;;;;;;4.45;1.73;;;;;;;18.86;100.00;100282.72;5114561;28;20114;-37
2023/09/18 06:25:31;;;;;;;;;;;;;;;18.90;100.00;100284.56;5115172;28;20090;-36
2023/09/18 06:27:56;;;;;;;2.92;1.60;;;;;;;18.83;100.00;100280.56;5114794;28;19971;-36
2023/09/18 06:30:22;;;;;;;;;;;;;;;18.86;100.00;100280.78;5114601;28;20491;-37
2023/09/18 06:32:47;;;;;;;2.58;1.40;;;;;;;18.82;100.00;100290.72;5114677;28;20263;-36
2023/09/18 06:35:13;;;;;;;3.08;1.30;;;;;;;18.83;100.00;100289.59;5114113;28;20022;-36
2023/09/18 06:37:38;;;;;;;4.00;1.52;;;;;;;18.82;100.00;100281.69;5114350;28;20382;-36
2023/09/18 06:40:05;;;;;;;5.03;1.58;;;;;;;18.81;100.00;100285.56;5114353;28;20026;-36
2023/09/18 06:42:30;;;;;;;2.70;1.40;;;;;;;18.85;100.00;100289.31;5115065;28;20019;-36
2023/09/18 06:44:56;;;;;;;;;;;;;;;18.88;100.00;100307.88;5114648;28;20106;-36
2023/09/18 06:47:21;;;;;;;3.28;1.30;;;;;;;18.80;100.00;100297.63;5114288;28;19904;-36
2023/09/18 06:49:47;;;;;;;4.72;1.52;;;;;;;18.86;100.00;100304.66;5113901;28;20352;-36
2023/09/18 06:52:12;;;;;;;3.90;1.67;;;;;;;18.86;100.00;100301.91;5114402;28;20028;-36
2023/09/18 06:54:38;;;;;;;3.10;1.30;;;;;;;18.88;100.00;100305.16;5114367;28;20106;-36
2023/09/18 06:57:04;;;;;;;1.98;1.20;;;;;;;18.84;100.00;100313.16;5114637;28;20028;-35
2023/09/18 06:59:29;;;;;;;4.35;1.40;;;;;;;18.90;100.00;100313.91;5114287;28;20063;-36
2023/09/18 07:01:55;;;;;;;4.25;1.70;;;;;;;18.93;100.00;100313.28;5114097;28;20031;-36
2023/09/18 07:04:21;;;;;;;3.88;1.40;;;;;;;18.93;100.00;100325.03;5113748;28;20028;-36
2023/09/18 07:06:46;;;;;;;;;;;;;;;19.01;100.00;100331.78;5115328;28;20333;-36
2023/09/18 07:09:12;;;;;;;2.55;1.20;;;;;;;18.98;100.00;100313.19;5114823;28;19907;-36
2023/09/18 07:11:38;;;;;;;1.80;1.00;;;;;;;19.01;100.00;100315.34;5113991;28;20036;-36
2023/09/18 07:14:05;;;;;;;2.97;1.40;;;;;;;18.90;100.00;100301.00;5113612;28;20031;-36
2023/09/18 07:16:31;;;;;;;3.60;1.55;;;;;;;19.02;100.00;100325.19;5114759;28;20398;-36
2023/09/18 07:18:56;;;;;;;3.08;1.33;;;;;;;19.03;100.00;100324.06;5114768;28;20043;-36
2023/09/18 07:21:21;;;;;;;2.95;1.35;;;;;;;18.97;100.00;100298.69;5118023;28;20098;-36
2023/09/18 07:23:47;;;;;;;3.67;1.35;;;;;;;19.07;100.00;100318.81;5117720;28;20024;-36
2023/09/18 07:26:13;;;;;;;3.45;1.40;;;;;;;19.08;100.00;100331.38;5117613;28;20036;-36
2023/09/18 07:28:38;;;;;;;4.13;1.30;;;;;;;18.98;100.00;100315.94;5117953;28;20031;-36
2023/09/18 07:31:08;;;;;;;2.92;1.08;;;;;;;19.03;100.00;100324.91;5117578;28;20027;-36
2023/09/18 07:33:34;;;;;;;4.82;1.40;;;;;;;19.03;100.00;100322.16;5117864;28;20024;-37
2023/09/18 07:35:59;;;;;;;3.67;1.30;;;;;;;19.03;100.00;100329.53;5118339;28;20485;-37
2023/09/18 07:38:25;;;;;;;3.83;1.50;;;;;;;18.96;100.00;100312.69;5117653;28;20023;-37
2023/09/18 07:40:50;;;;;;;3.35;1.58;;;;;;;19.10;100.00;100327.25;5117973;27;20012;-36
2023/09/18 07:43:16;;;;;;;3.97;1.33;;;;;;;19.12;100.00;100338.72;5117960;28;20024;-37
2023/09/18 07:45:41;;;;;;;3.53;1.40;;;;;;;19.06;100.00;100328.94;5117578;27;20540;-37
2023/09/18 07:48:09;;;;;;;5.60;2.00;;;;;;;19.13;100.00;100345.84;5118070;28;20035;-37
2023/09/18 07:50:35;;;;;;;4.43;1.60;;;;;;;19.13;100.00;100339.50;5117958;28;20023;-36
2023/09/18 07:53:01;;;;;;;3.10;1.30;;;;;;;19.07;100.00;100327.84;5117463;28;20092;-37
2023/09/18 07:55:27;;;;;;;2.75;1.25;;;;;;;19.15;100.00;100346.34;5117643;28;20027;-37
2023/09/18 07:57:53;;;;;;;6.93;1.40;;;;;;;19.22;100.00;100346.75;5117644;28;20387;-37
2023/09/18 08:00:19;;;;;;;2.30;1.20;;;;;;;19.20;100.00;100350.91;5117372;28;20051;-37
2023/09/18 08:02:46;;;;;;;1.90;1.13;;;;;;;19.22;100.00;100346.75;5117568;28;20027;-37
2023/09/18 08:05:11;;;;;;;1.67;1.20;;;;;;;19.20;100.00;100329.81;5117152;28;20028;-37
2023/09/18 08:07:37;;;;;;;4.00;1.33;;;;;;;19.27;100.00;100332.16;5117458;28;20026;-37
2023/09/18 08:10:08;;;;;;;2.47;1.40;;;;;;;19.30;100.00;100342.53;5116822;28;20072;-37
2023/09/18 08:12:34;;;;;;;2.35;1.33;;;;;;;19.25;100.00;100337.94;5117155;28;20026;-37
2023/09/18 08:14:59;;;;;;;3.30;1.50;;;;;;;19.29;100.00;100349.13;5116966;28;20103;-37
2023/09/18 08:17:25;;;;;;;2.67;1.40;;;;;;;19.28;100.00;100348.31;5117232;28;20016;-37
2023/09/18 08:19:53;;;;;;;2.65;1.40;;;;;;;19.28;100.00;100342.84;5116602;27;20479;-37
2023/09/18 08:22:20;;;;;;;2.65;1.40;;;;;;;19.30;100.00;100351.56;5116604;28;20023;-37
2023/09/18 08:24:46;;;;;;;3.50;1.40;;;;;;;19.32;100.00;100353.19;5116880;28;20023;-37
2023/09/18 08:27:16;;;;;;;2.50;1.20;;;;;;;19.37;100.00;100364.03;5116886;28;20024;-37
2023/09/18 08:29:43;;;;;;;4.70;1.48;;;;;;;19.48;100.00;100357.28;5117128;28;20077;-37
2023/09/18 08:32:08;;;;;;;2.35;1.60;;;;;;;19.51;100.00;100362.16;5116650;28;20103;-37
2023/09/18 08:34:34;;;;;;;3.22;1.52;;;;;;;19.56;100.00;100370.28;5116702;28;20019;-37
2023/09/18 08:36:59;;;;;;;3.90;1.30;;;;;;;19.66;100.00;100374.78;5116806;28;20024;-37
2023/09/18 08:39:24;;;;;;;4.85;1.60;;;;;;;19.63;100.00;100378.97;5116882;28;20027;-37
2023/09/18 08:41:56;;;;;;;4.18;1.50;;;;;;;19.62;100.00;100380.09;5117068;28;20073;-37
2023/09/18 08:44:24;;;;;;;2.30;1.50;;;;;;;19.62;100.00;100376.50;5117024;28;20102;-37
2023/09/18 08:46:50;;;;;;;2.70;1.40;;;;;;;19.67;100.00;100390.97;5116409;28;20028;-37
2023/09/18 08:49:17;;;;;;;4.55;1.77;;;;;;;19.63;100.00;100378.97;5116300;28;20046;-37
2023/09/18 08:51:43;;;;;;;3.22;1.27;;;;;;;19.69;100.00;100396.94;5116649;28;20098;-37
2023/09/18 08:54:09;;;;;;;2.67;1.52;;;;;;;19.72;100.00;100382.66;5116292;28;20109;-37
2023/09/18 08:56:35;;;;;;;4.22;1.42;;;;;;;19.78;100.00;100377.88;5116832;28;20057;-38
2023/09/18 08:59:00;;;;;;;3.13;1.35;;;;;;;19.78;100.00;100375.13;5115661;28;20122;-38
2023/09/18 09:01:26;;;;;;;3.05;1.15;;;;;;;19.82;100.00;100383.56;5116944;28;20035;-35
2023/09/18 09:03:52;;;;;;;5.78;1.33;;;;;;;19.94;100.00;100376.44;5115767;28;20054;-37
2023/09/18 09:06:17;;;;;;;2.47;1.23;;;;;;;20.06;100.00;100370.47;5116242;28;20031;-37
2023/09/18 09:08:43;;;;;;;4.30;1.30;;;;;;;20.14;100.00;100377.97;5116067;28;20516;-37
2023/09/18 09:11:08;;;;;;;2.05;1.10;;;;;;;20.24;100.00;100387.91;5115902;28;20103;-37
2023/09/18 09:13:34;;;;;;;4.28;1.63;;;;;;;20.36;100.00;100379.97;5115548;28;20539;-35
2023/09/18 09:16:00;;;;;;;2.20;1.27;;;;;;;20.46;100.00;100376.22;5115471;28;20049;-36
2023/09/18 09:18:28;;;;;;;3.17;1.17;;;;;;;20.54;100.00;100370.00;5115975;28;20356;-36
2023/09/18 09:20:58;;;;;;;2.67;1.15;;;;;;;20.73;100.00;100381.63;5115710;28;20076;-36
2023/09/18 09:23:24;;;;;;;3.13;1.38;;;;;;;20.86;100.00;100387.41;5116319;27;20386;-36
2023/09/18 09:25:49;;;;;;;2.63;1.17;;;;;;;20.98;100.00;100399.47;5115648;28;20020;-36
2023/09/18 09:28:16;;;;;;;5.38;1.45;;;;;;;21.06;100.00;100411.66;5115622;28;20561;-36
2023/09/18 09:30:41;;;;;;;3.58;1.52;;;;;;;20.82;100.00;100395.47;5116062;27;20359;-36
2023/09/18 09:33:07;;;;;;;5.53;1.38;;;;;;;20.82;100.00;100414.69;5115785;28;20027;-36
2023/09/18 09:35:35;;;;;;;3.85;1.45;;;;;;;20.78;100.00;100414.50;5115359;28;20026;-36
2023/09/18 09:38:14;;;;;;;3.50;1.60;;;;;;;20.79;100.00;100407.09;5115888;28;20065;-36
2023/09/18 09:40:41;;;;;;;3.17;1.60;;;;;;;20.88;100.00;100410.69;5115629;28;20019;-36
2023/09/18 09:43:13;;;;;;;4.20;1.73;;;;;;;20.96;100.00;100420.16;5114504;28;20058;-36
2023/09/18 09:45:40;;;;;;;3.22;1.50;;;;;;;21.04;100.00;100413.94;5115569;28;20482;-36
2023/09/18 09:48:06;;;;;;;4.22;1.80;;;;;;;20.95;100.00;100410.28;5116060;28;20020;-36
2023/09/18 09:50:32;;;;;;;4.13;1.73;;;;;;;20.92;100.00;100411.72;5115127;28;20482;-36
2023/09/18 09:52:59;;;;;;;3.95;1.73;;;;;;;20.89;100.00;100406.03;5115411;28;20030;-36
2023/09/18 09:55:30;;;;;;;3.58;1.70;;;;;;;20.98;100.00;100407.72;5115018;28;20023;-36
2023/09/18 09:57:59;;;;;;;2.63;1.50;;;;;;;21.01;100.00;100414.53;5115248;28;20027;-37
2023/09/18 10:00:30;;;;;;;3.40;1.60;;;;;;;20.98;100.00;100410.47;5114757;28;20044;-37
2023/09/18 10:03:01;;;;;;;9.52;1.90;;;;;;;21.00;100.00;100412.91;5114923;28;20031;-37
2023/09/18 10:05:30;;;;;;;4.03;1.58;;;;;;;21.01;100.00;100418.09;5115451;28;20388;-36
2023/09/18 10:08:02;;;;;;;3.13;1.50;;;;;;;20.96;100.00;100420.16;5114877;28;20027;-37
2023/09/18 10:10:47;;;;;;;4.88;1.83;;;;;;;20.93;100.00;100429.81;5114799;28;20102;-37
2023/09/18 10:13:18;;;;;;;3.20;1.88;;;;;;;20.90;100.00;100429.66;5114779;28;20071;-37
2023/09/18 10:15:46;;;;;;;5.80;1.70;;;;;;;20.87;100.00;100441.25;5114734;28;20039;-37
2023/09/18 10:18:33;;;;;;;7.82;2.28;;;;;;;20.92;100.00;100446.63;5114880;28;20020;-37
2023/09/18 10:21:14;;;;;;;3.92;1.60;;;;;;;20.96;100.00;100444.88;5114957;28;20023;-37
2023/09/18 10:23:53;;;;;;;3.80;1.50;;;;;;;20.97;100.00;100433.56;5115391;28;20031;-37
2023/09/18 10:26:30;;;;;;;3.72;2.00;;;;;;;21.05;100.00;100430.09;5114896;28;20136;-37
2023/09/18 10:29:02;;;;;;;4.50;1.80;;;;;;;21.37;100.00;100424.69;5115066;28;20020;-37
2023/09/18 10:31:28;;;;;;;4.85;1.20;;;;;;;21.62;100.00;100435.06;5115282;28;20077;-37
2023/09/18 10:33:57;;;;;;;4.43;1.85;;;;;;;21.74;100.00;100432.53;5114704;28;20456;-36
2023/09/18 10:36:24;;;;;;;3.17;1.50;;;;;;;21.67;100.00;100421.19;5114397;28;20031;-36
2023/09/18 10:38:51;;;;;;;2.28;1.45;;;;;;;21.76;100.00;100429.44;5114051;28;20455;-36
2023/09/18 10:41:20;;;;;;;3.88;1.70;;;;;;;21.78;100.00;100411.50;5114567;28;20076;-37
2023/09/18 10:43:47;;;;;;;3.40;1.77;;;;;;;21.83;100.00;100424.31;5114920;28;20039;-37
2023/09/18 10:46:13;;;;;;;10.10;2.55;;;;;;;21.78;100.00;100422.53;5114187;28;20030;-37
2023/09/18 10:48:41;;;;;;;3.08;1.52;;;;;;;21.72;100.00;100429.28;5114796;28;20032;-37
2023/09/18 10:51:07;;;;;;;2.95;1.60;;;;;;;21.73;100.00;100430.09;5114974;28;20027;-37
2023/09/18 10:53:33;;;;;;;3.58;1.70;;;;;;;21.65;100.00;100417.09;5113711;28;20110;-36
2023/09/18 10:55:58;;;;;;;5.07;2.00;;;;;;;21.62;100.00;100424.06;5114148;28;20023;-37
2023/09/18 10:58:27;;;;;;;4.45;1.83;;;;;;;21.53;100.00;100426.75;5114948;28;20328;-37
2023/09/18 11:00:54;;;;;;;4.25;2.00;;;;;;;21.44;100.00;100422.31;5113991;28;20040;-37
2023/09/18 11:03:22;;;;;;;4.35;2.20;;;;;;;21.31;100.00;100427.56;5113845;28;20015;-37
2023/09/18 11:06:01;;;;;;;3.53;1.80;;;;;;;21.22;100.00;100434.91;5114028;28;20376;-37
2023/09/18 11:08:31;;;;;;;4.82;1.90;;;;;;;21.02;100.00;100418.91;5113804;28;20080;-37
2023/09/18 11:11:11;;;;;;;4.72;1.90;;;;;;;21.07;100.00;100435.28;5113942;28;20060;-37
2023/09/18 11:13:47;;;;;;;6.07;2.22;;;;;;;21.12;100.00;100435.16;5114573;28;20027;-36
2023/09/18 11:16:15;;;;;;;3.47;1.45;;;;;;;21.36;100.00;100434.06;5114263;28;20026;-37
2023/09/18 11:18:41;;;;;;;4.85;1.80;;;;;;;21.46;100.00;100431.88;5113620;28;20546;-37